Arbyrd, Missouri
Current Conditions -  °F | °C
As of 6:53 PM on Tuesday 21 Oct 2014 (Local Time) from KHKA Reporting Station
Clear Clear  
Wind Chill: 18°   Ceiling: Unl
Heat Index: 18°   Visibility: 10mi
Dew Point:   Wind: 3mph
Humidity: 58%   Direction: 10°N
Pressure: 30.06"   Gusts: NA
Location:  36.05°N, 90.24°W
Report Text: KHKA 212353Z AUTO 01003KT 10SM CLR 18/09 A3006 RMK AO2 SLP179 T01780094 10261 20172 53003
Loading
Personal Weather Stations






























Interactive Weather Map
Tropical Storm Tracking
New forecast layout! Learn more

10-Day Weather Forecast

Advertisements
Track Severe Weather on mobile